createdAt,value
2022-07-29T00:03:22.861Z,29.23
2022-07-29T00:10:12.193Z,29.02
2022-07-29T00:16:57.969Z,28.97
2022-07-29T00:23:43.452Z,28.87
2022-07-29T00:30:31.664Z,28.79
2022-07-29T00:37:17.148Z,28.53
2022-07-29T00:44:02.385Z,28.55
2022-07-29T00:50:50.590Z,28.11
2022-07-29T00:57:36.444Z,28.05
2022-07-29T01:04:22.030Z,27.98
2022-07-29T01:11:09.949Z,28.10
2022-07-29T01:18:05.077Z,27.93
2022-07-29T01:25:22.037Z,27.85
2022-07-29T01:32:22.579Z,27.73
2022-07-29T01:39:18.325Z,27.55
2022-07-29T01:46:08.780Z,27.46
2022-07-29T01:53:02.370Z,27.38
2022-07-29T01:59:50.408Z,26.87
2022-07-29T02:06:41.036Z,27.20
2022-07-29T02:13:32.351Z,27.04
2022-07-29T02:20:18.552Z,26.95
2022-07-29T02:27:06.613Z,26.82
2022-07-29T02:33:56.936Z,26.71
2022-07-29T02:40:44.300Z,26.61
2022-07-29T03:01:25.401Z,26.32
2022-07-29T03:08:14.884Z,26.24
2022-07-29T03:15:02.923Z,26.13
2022-07-29T03:21:51.236Z,25.92
2022-07-29T03:28:36.778Z,25.84
2022-07-29T03:35:23.623Z,25.42
2022-07-29T03:42:15.907Z,25.61
2022-07-29T03:49:05.235Z,25.59
2022-07-29T03:55:58.081Z,25.54
2022-07-29T04:02:49.804Z,25.48
2022-07-29T04:09:35.772Z,25.48
2022-07-29T04:16:21.374Z,25.44
2022-07-29T04:23:09.496Z,25.44
2022-07-29T04:29:56.360Z,25.43
2022-07-29T04:36:42.966Z,25.45
2022-07-29T04:43:31.505Z,25.52
2022-07-29T04:50:23.066Z,25.66
2022-07-29T04:57:08.603Z,25.77
2022-07-29T05:04:00.263Z,25.81
2022-07-29T05:10:46.412Z,25.88
2022-07-29T05:17:31.909Z,26.00
2022-07-29T05:24:20.341Z,25.53
2022-07-29T05:31:06.166Z,26.34
2022-07-29T05:37:51.758Z,26.45
2022-07-29T05:44:43.420Z,26.64
2022-07-29T05:51:28.910Z,26.87
2022-07-29T05:58:14.421Z,27.11
2022-07-29T06:05:02.874Z,27.34
2022-07-29T06:11:48.518Z,27.59
2022-07-29T06:18:34.323Z,27.74
2022-07-29T06:25:22.394Z,28.05
2022-07-29T06:32:10.157Z,28.17
2022-07-29T06:38:55.759Z,28.23
2022-07-29T06:45:45.186Z,28.22
2022-07-29T06:52:30.894Z,28.75
2022-07-29T06:59:17.392Z,28.38
2022-07-29T07:06:05.794Z,28.93
2022-07-29T07:12:51.258Z,29.03
2022-07-29T07:19:37.286Z,29.24
2022-07-29T07:26:25.367Z,29.53
2022-07-29T07:33:10.897Z,29.85
2022-07-29T07:39:56.695Z,30.14
2022-07-29T07:46:45.906Z,30.34
2022-07-29T07:53:31.735Z,30.61
2022-07-29T08:00:19.778Z,30.68
2022-07-29T08:07:12.346Z,30.66
2022-07-29T08:13:58.067Z,30.79
2022-07-29T08:20:44.276Z,30.70
2022-07-29T08:27:43.424Z,30.69
2022-07-29T08:34:30.504Z,30.69
2022-07-29T08:41:16.120Z,31.24
2022-07-29T08:48:04.230Z,31.17
2022-07-29T08:54:50.677Z,31.09
2022-07-29T09:01:42.663Z,31.09
2022-07-29T09:08:35.264Z,31.33
2022-07-29T09:15:22.140Z,31.39
2022-07-29T09:22:11.062Z,31.33
2022-07-29T09:28:59.556Z,31.36
2022-07-29T09:35:56.913Z,31.52
2022-07-29T09:42:43.068Z,31.67
2022-07-29T09:49:31.104Z,31.51
2022-07-29T09:56:16.605Z,32.19
2022-07-29T10:03:05.016Z,32.31
2022-07-29T10:09:58.533Z,32.40
2022-07-29T10:16:44.390Z,32.45
2022-07-29T10:23:30.533Z,32.43
2022-07-29T10:30:35.984Z,33.09
2022-07-29T10:37:36.100Z,33.37
2022-07-29T10:44:24.695Z,33.55
2022-07-29T10:51:13.272Z,33.62
2022-07-29T10:58:19.099Z,33.65
2022-07-29T11:05:07.248Z,33.84
2022-07-29T11:11:55.366Z,34.07
2022-07-29T11:18:42.791Z,34.09
2022-07-29T11:25:50.417Z,33.98
2022-07-29T11:32:48.548Z,33.95
2022-07-29T11:39:36.955Z,34.05
2022-07-29T11:46:49.967Z,34.05
2022-07-29T11:53:39.991Z,34.42
2022-07-29T12:00:32.824Z,34.47
2022-07-29T12:07:20.198Z,34.38
2022-07-29T12:14:08.398Z,34.80
2022-07-29T12:21:04.742Z,35.04
2022-07-29T12:27:50.618Z,35.18
2022-07-29T12:34:39.010Z,35.27
2022-07-29T12:41:24.536Z,35.32
2022-07-29T12:48:13.145Z,35.30
2022-07-29T12:55:01.869Z,35.43
2022-07-29T13:01:48.966Z,35.44
2022-07-29T13:08:35.141Z,35.39
2022-07-29T13:15:23.201Z,35.32
2022-07-29T13:22:09.484Z,35.44
2022-07-29T13:28:55.723Z,35.59
2022-07-29T13:35:44.053Z,35.69
2022-07-29T13:42:32.089Z,35.74
2022-07-29T13:49:17.661Z,35.50
2022-07-29T13:56:06.841Z,35.02
2022-07-29T14:02:52.352Z,35.23
2022-07-29T14:09:41.431Z,35.12
2022-07-29T14:16:30.082Z,34.98
2022-07-29T14:23:16.439Z,34.97
2022-07-29T14:30:02.445Z,34.91
2022-07-29T14:36:50.542Z,34.82
2022-07-29T14:43:36.021Z,34.87
2022-07-29T14:50:23.303Z,34.86
2022-07-29T14:57:20.829Z,34.83
2022-07-29T15:04:07.490Z,34.54
2022-07-29T15:10:53.295Z,34.73
2022-07-29T15:17:41.520Z,34.74
2022-07-29T15:24:27.080Z,34.88
2022-07-29T15:31:13.762Z,34.94
2022-07-29T15:38:02.193Z,34.98
2022-07-29T15:44:47.673Z,35.11
2022-07-29T15:51:33.164Z,35.22
2022-07-29T15:58:21.277Z,35.16
2022-07-29T16:05:09.466Z,34.97
2022-07-29T16:11:56.301Z,35.05
2022-07-29T16:18:44.370Z,35.06
2022-07-29T16:25:58.249Z,34.99
2022-07-29T16:32:35.413Z,34.70
2022-07-29T16:39:23.441Z,34.45
2022-07-29T16:46:18.422Z,34.12
2022-07-29T16:53:04.745Z,33.93
2022-07-29T16:59:53.080Z,33.69
2022-07-29T17:06:40.240Z,32.52
2022-07-29T17:13:25.680Z,33.46
2022-07-29T17:20:17.593Z,33.41
2022-07-29T17:27:03.247Z,33.27
2022-07-29T17:33:48.837Z,33.00
2022-07-29T17:40:36.902Z,32.81
2022-07-29T17:47:22.350Z,32.68
2022-07-29T17:54:08.219Z,32.67
2022-07-29T18:00:56.557Z,32.24
2022-07-29T18:07:42.045Z,32.70
2022-07-29T18:14:27.693Z,32.65
2022-07-29T18:21:16.791Z,32.57
2022-07-29T18:28:22.552Z,32.42
2022-07-29T18:35:09.267Z,32.24
2022-07-29T18:41:59.353Z,31.91
2022-07-29T18:48:44.858Z,31.62
2022-07-29T18:55:30.486Z,31.52
2022-07-29T19:02:18.936Z,30.76
2022-07-29T19:09:04.639Z,31.32
2022-07-29T19:15:50.326Z,31.10
2022-07-29T19:22:38.778Z,30.89
2022-07-29T19:29:25.382Z,30.14
2022-07-29T19:36:11.652Z,30.34
2022-07-29T19:43:00.724Z,30.12
2022-07-29T19:49:46.301Z,29.92
2022-07-29T19:56:32.065Z,30.15
2022-07-29T20:03:20.413Z,30.18
2022-07-29T20:10:06.567Z,30.31
2022-07-29T20:16:53.791Z,30.33
2022-07-29T20:23:41.985Z,30.35
2022-07-29T20:30:27.684Z,30.41
2022-07-29T20:37:16.328Z,30.18
2022-07-29T20:44:06.097Z,29.95
2022-07-29T20:50:52.955Z,30.07
2022-07-29T20:57:39.882Z,29.99
2022-07-29T21:04:30.940Z,29.72
2022-07-29T21:11:18.286Z,29.74
2022-07-29T21:18:32.421Z,29.56
2022-07-29T21:25:20.873Z,29.00
2022-07-29T21:32:07.369Z,28.89
2022-07-29T21:38:52.873Z,28.19
2022-07-29T21:45:40.940Z,28.61
2022-07-29T21:52:26.606Z,28.25
2022-07-29T21:59:12.933Z,28.08
2022-07-29T22:06:01.890Z,27.84
2022-07-29T22:12:47.617Z,27.77
2022-07-29T22:19:33.118Z,27.76
2022-07-29T22:26:20.972Z,27.88
2022-07-29T22:33:06.782Z,27.75
2022-07-29T22:39:52.319Z,27.78
2022-07-29T22:46:40.336Z,28.02
2022-07-29T22:53:25.848Z,27.87
2022-07-29T23:00:16.242Z,28.18
2022-07-29T23:07:04.626Z,28.30
2022-07-29T23:13:50.121Z,28.38
2022-07-29T23:20:36.057Z,28.34
2022-07-29T23:27:24.104Z,28.33
2022-07-29T23:34:09.845Z,28.37
2022-07-29T23:40:55.772Z,28.35
2022-07-29T23:47:45.132Z,28.37
2022-07-29T23:54:30.709Z,28.39
